Time;durP1;ratioP1;P1;durP2;ratioP2;P2;SDS_P1;SDS_P2;PMS_P1;PMS_P2;Temp;Humidity;BMP_temperature;BMP_pressure;BME280_temperature;BME280_humidity;BME280_pressure;Samples;Min_cycle;Max_cycle;Signal;HPM_P1;HPM_P2
2021/08/10 00:01:05;;;;;;;3.03;2.37;;;17.20;99.90;;;;;;4918272;29;20226;-71
2021/08/10 00:03:31;;;;;;;4.03;2.70;;;17.10;99.90;;;;;;4921309;29;20454;-72
2021/08/10 00:05:57;;;;;;;3.30;2.10;;;17.00;99.90;;;;;;4920671;29;20187;-71
2021/08/10 00:08:22;;;;;;;5.00;2.30;;;17.00;99.90;;;;;;4921780;29;20595;-71
2021/08/10 00:10:50;;;;;;;3.20;2.60;;;16.90;99.90;;;;;;4921188;29;20430;-71
2021/08/10 00:13:18;;;;;;;4.70;2.27;;;16.90;99.90;;;;;;4921153;29;20609;-71
2021/08/10 00:15:43;;;;;;;2.73;2.40;;;16.80;99.90;;;;;;4921255;29;20430;-71
2021/08/10 00:18:09;;;;;;;2.30;1.93;;;16.60;99.90;;;;;;4903544;29;20427;-71
2021/08/10 00:20:35;;;;;;;2.87;2.43;;;16.60;99.90;;;;;;4920992;29;20186;-71
2021/08/10 00:23:01;;;;;;;3.70;2.37;;;16.50;99.90;;;;;;4921582;29;20536;-71
2021/08/10 00:25:28;;;;;;;5.10;2.77;;;16.50;99.90;;;;;;4921778;29;20434;-71
2021/08/10 00:27:53;;;;;;;3.10;2.80;;;16.50;99.90;;;;;;4920669;29;20415;-71
2021/08/10 00:30:20;;;;;;;3.00;2.60;;;16.40;99.90;;;;;;4920840;29;20410;-71
2021/08/10 00:32:46;;;;;;;4.67;2.27;;;16.40;99.90;;;;;;4919986;29;20206;-71
2021/08/10 00:35:11;;;;;;;5.10;3.07;;;16.30;99.90;;;;;;4921586;29;20429;-72
2021/08/10 00:37:37;;;;;;;2.63;2.40;;;16.30;99.90;;;;;;4925520;29;20467;-71
2021/08/10 00:40:04;;;;;;;3.73;3.07;;;16.20;99.90;;;;;;4931157;29;20424;-72
2021/08/10 00:42:29;;;;;;;3.37;2.57;;;16.20;99.90;;;;;;4931859;29;20202;-71
2021/08/10 00:44:55;;;;;;;2.80;2.60;;;16.20;99.90;;;;;;4920072;29;20947;-71
2021/08/10 00:47:21;;;;;;;3.97;3.10;;;16.10;99.90;;;;;;4920107;29;20841;-71
2021/08/10 00:49:46;;;;;;;4.50;3.20;;;16.00;99.90;;;;;;4921461;29;20552;-71
2021/08/10 00:52:12;;;;;;;2.43;2.23;;;16.00;99.90;;;;;;4920302;29;20704;-70
2021/08/10 00:54:38;;;;;;;4.17;2.50;;;16.00;99.90;;;;;;4920324;29;20649;-71
2021/08/10 00:57:03;;;;;;;4.37;3.97;;;15.90;99.90;;;;;;4920778;29;20533;-71
2021/08/10 00:59:29;;;;;;;5.27;2.40;;;16.00;99.90;;;;;;4919907;29;20501;-70
2021/08/10 01:01:55;;;;;;;4.80;2.70;;;16.00;99.90;;;;;;4919619;29;20204;-70
2021/08/10 01:04:20;;;;;;;4.73;3.03;;;15.90;99.90;;;;;;4919685;29;20195;-72
2021/08/10 01:06:50;;;;;;;3.27;2.97;;;15.80;99.90;;;;;;4920407;29;20180;-70
2021/08/10 01:09:26;;;;;;;3.63;2.70;;;15.80;99.90;;;;;;4919362;29;20533;-70
2021/08/10 01:12:15;;;;;;;7.17;2.50;;;15.70;99.90;;;;;;4918662;29;20446;-70
2021/08/10 01:14:54;;;;;;;3.33;2.70;;;15.60;99.90;;;;;;4918853;29;20502;-71
2021/08/10 01:17:57;;;;;;;3.93;3.00;;;15.60;99.90;;;;;;4918734;29;20387;-70
2021/08/10 01:20:49;;;;;;;3.90;2.83;;;15.60;99.90;;;;;;4861074;29;20804;-70
2021/08/10 01:23:21;;;;;;;4.72;3.65;;;15.50;99.90;;;;;;4859751;29;20426;-70
2021/08/10 01:26:23;;;;;;;3.63;3.30;;;15.50;99.90;;;;;;4865816;29;20200;-71
2021/08/10 01:29:25;;;;;;;5.40;2.90;;;15.50;99.90;;;;;;4879672;29;20420;-71
2021/08/10 01:31:52;;;;;;;4.07;3.03;;;15.50;99.90;;;;;;4879446;29;20479;-71
2021/08/10 01:34:25;;;;;;;4.33;2.80;;;15.50;99.90;;;;;;4879040;29;20433;-71
2021/08/10 01:36:56;;;;;;;3.47;2.73;;;15.40;99.90;;;;;;4877682;29;20850;-70
2021/08/10 01:39:24;;;;;;;3.20;2.90;;;15.40;99.90;;;;;;4879110;29;20441;-70
2021/08/10 01:41:51;;;;;;;3.43;2.77;;;15.30;99.90;;;;;;4879395;29;20417;-71
2021/08/10 01:44:18;;;;;;;4.20;2.73;;;15.30;99.90;;;;;;4879364;29;20449;-71
2021/08/10 01:46:46;;;;;;;5.60;3.63;;;15.30;99.90;;;;;;4877605;29;20969;-71
2021/08/10 01:49:12;;;;;;;4.93;3.67;;;15.20;99.90;;;;;;4878813;29;21063;-72
2021/08/10 01:51:38;;;;;;;4.80;3.60;;;15.20;99.90;;;;;;4919774;29;20564;-72
2021/08/10 01:54:04;;;;;;;4.53;2.80;;;15.10;99.90;;;;;;4937069;29;20470;-71
2021/08/10 01:56:31;;;;;;;6.23;3.57;;;15.10;99.90;;;;;;4937256;29;20171;-71
2021/08/10 01:59:00;;;;;;;4.17;3.13;;;15.00;99.90;;;;;;4935733;29;20422;-71
2021/08/10 02:01:29;;;;;;;3.63;2.87;;;15.00;99.90;;;;;;4937804;29;20504;-70
2021/08/10 02:03:55;;;;;;;5.97;3.23;;;14.90;99.90;;;;;;4937032;29;20445;-70
2021/08/10 02:06:22;;;;;;;4.43;3.70;;;14.90;99.90;;;;;;4937297;29;20425;-71
2021/08/10 02:08:49;;;;;;;4.47;3.20;;;14.90;99.90;;;;;;4936192;29;20987;-71
2021/08/10 02:11:16;;;;;;;9.17;3.60;;;14.80;99.90;;;;;;4937295;29;20891;-71
2021/08/10 02:13:42;;;;;;;7.10;3.77;;;14.80;99.90;;;;;;4936603;29;20468;-71
2021/08/10 02:16:09;;;;;;;4.30;3.27;;;14.80;99.90;;;;;;4936764;29;20402;-71
2021/08/10 02:18:36;;;;;;;6.43;3.97;;;14.90;99.90;;;;;;4935205;29;20451;-71
2021/08/10 02:21:04;;;;;;;4.87;3.30;;;15.00;99.90;;;;;;4937539;29;20748;-71
2021/08/10 02:23:32;;;;;;;4.60;3.50;;;15.10;99.90;;;;;;4936545;29;20439;-72
2021/08/10 02:25:58;;;;;;;3.50;2.87;;;15.10;99.90;;;;;;4936867;29;20411;-72
2021/08/10 02:28:27;;;;;;;6.35;3.30;;;15.10;99.90;;;;;;4936216;29;20428;-72
2021/08/10 02:30:54;;;;;;;4.57;3.20;;;15.20;99.90;;;;;;4935514;29;20271;-71
2021/08/10 02:33:23;;;;;;;4.37;2.83;;;15.30;99.90;;;;;;4936729;29;20435;-71
2021/08/10 02:35:53;;;;;;;3.57;3.27;;;15.30;99.90;;;;;;4936584;29;20496;-72
2021/08/10 02:38:21;;;;;;;5.40;3.47;;;15.30;99.90;;;;;;4936853;29;20434;-71
2021/08/10 02:40:49;;;;;;;5.90;3.30;;;15.30;99.90;;;;;;4934949;29;20514;-71
2021/08/10 02:43:17;;;;;;;6.20;3.00;;;15.30;99.90;;;;;;4936395;29;20441;-71
2021/08/10 02:45:43;;;;;;;4.47;3.40;;;15.30;99.90;;;;;;4936267;29;20418;-72
2021/08/10 02:48:08;;;;;;;3.27;2.90;;;15.40;99.90;;;;;;4935424;29;20454;-72
2021/08/10 02:50:34;;;;;;;6.20;3.93;;;15.40;99.90;;;;;;4936004;29;20513;-72
2021/08/10 02:53:02;;;;;;;6.83;3.70;;;15.30;99.90;;;;;;4936705;29;20198;-71
2021/08/10 02:55:29;;;;;;;4.37;3.40;;;15.40;99.90;;;;;;4936026;29;20238;-71
2021/08/10 02:58:07;;;;;;;4.67;3.77;;;15.40;99.90;;;;;;4936418;29;20509;-71
2021/08/10 03:00:39;;;;;;;5.93;3.40;;;15.30;99.90;;;;;;4935141;29;20414;-71
2021/08/10 03:03:16;;;;;;;4.53;3.60;;;15.20;99.90;;;;;;4936729;29;20459;-71
2021/08/10 03:05:43;;;;;;;4.30;3.27;;;15.30;99.90;;;;;;4935796;29;20938;-71
2021/08/10 03:08:12;;;;;;;4.80;3.13;;;15.30;99.90;;;;;;4936923;29;20887;-71
2021/08/10 03:10:39;;;;;;;4.97;3.72;;;15.30;99.90;;;;;;4933985;29;20427;-71
2021/08/10 03:13:07;;;;;;;4.77;3.83;;;15.40;99.90;;;;;;4935806;29;20202;-71
2021/08/10 03:15:35;;;;;;;5.00;4.07;;;15.50;99.90;;;;;;4935827;29;20410;-71
2021/08/10 03:18:04;;;;;;;5.37;3.53;;;15.60;99.90;;;;;;4935909;29;20406;-71
2021/08/10 03:20:33;;;;;;;4.20;3.80;;;15.60;99.90;;;;;;4935009;29;20433;-71
2021/08/10 03:23:00;;;;;;;4.47;3.87;;;15.60;99.90;;;;;;4936280;29;20431;-71
2021/08/10 03:25:29;;;;;;;4.67;4.07;;;15.60;99.90;;;;;;4936267;29;20457;-71
2021/08/10 03:27:56;;;;;;;5.13;3.40;;;15.60;99.90;;;;;;4936103;29;20467;-71
2021/08/10 03:30:22;;;;;;;4.53;3.07;;;15.60;99.90;;;;;;4936559;29;20418;-71
2021/08/10 03:32:51;;;;;;;4.23;3.77;;;15.60;99.90;;;;;;4935030;29;20540;-71
2021/08/10 03:35:18;;;;;;;4.63;3.50;;;15.60;99.90;;;;;;4936009;29;20415;-71
2021/08/10 03:37:44;;;;;;;6.27;3.80;;;15.60;99.90;;;;;;4940054;29;20418;-71
2021/08/10 03:40:10;;;;;;;6.10;3.83;;;15.70;99.90;;;;;;4939911;29;20438;-71
2021/08/10 03:42:36;;;;;;;3.77;3.30;;;15.80;99.90;;;;;;4938455;29;20465;-71
2021/08/10 03:45:03;;;;;;;7.60;3.27;;;15.80;99.90;;;;;;4939985;29;20497;-71
2021/08/10 03:47:30;;;;;;;5.40;3.30;;;15.90;99.90;;;;;;4939413;29;20860;-71
2021/08/10 03:49:56;;;;;;;3.83;3.20;;;15.80;99.90;;;;;;4939612;29;20181;-71
2021/08/10 03:52:22;;;;;;;3.27;2.90;;;15.80;99.90;;;;;;4938468;29;20504;-71
2021/08/10 03:54:48;;;;;;;3.70;3.37;;;15.80;99.90;;;;;;4961458;28;20441;-71
2021/08/10 03:57:16;;;;;;;4.67;3.37;;;15.80;99.90;;;;;;4962930;29;20213;-71
2021/08/10 03:59:51;;;;;;;5.03;2.90;;;15.90;99.90;;;;;;4941576;29;20189;-71
2021/08/10 04:02:18;;;;;;;4.47;3.27;;;15.90;99.90;;;;;;4923012;29;20425;-71
2021/08/10 04:04:45;;;;;;;4.23;3.03;;;16.00;99.90;;;;;;4933414;29;21038;-72
2021/08/10 04:07:12;;;;;;;3.97;3.57;;;16.00;99.90;;;;;;4939333;29;20476;-71
2021/08/10 04:09:38;;;;;;;4.17;3.57;;;15.90;99.90;;;;;;4935533;29;20611;-71
2021/08/10 04:12:09;;;;;;;3.83;3.47;;;16.00;99.90;;;;;;4930457;29;20493;-71
2021/08/10 04:14:35;;;;;;;5.00;3.37;;;16.00;99.90;;;;;;4939193;29;20433;-71
2021/08/10 04:17:05;;;;;;;3.50;3.10;;;16.00;99.90;;;;;;4939189;29;20960;-72
2021/08/10 04:19:34;;;;;;;4.60;3.33;;;16.00;99.90;;;;;;4933118;29;20445;-71
2021/08/10 04:21:59;;;;;;;3.87;3.17;;;16.10;99.90;;;;;;4922731;29;20430;-72
2021/08/10 04:24:25;;;;;;;4.07;3.00;;;16.10;99.90;;;;;;4930456;29;20454;-72
2021/08/10 04:26:51;;;;;;;4.47;3.40;;;16.10;99.90;;;;;;4932884;29;20214;-72
2021/08/10 04:29:17;;;;;;;4.87;3.50;;;16.10;99.90;;;;;;4925756;29;20445;-72
2021/08/10 04:31:43;;;;;;;4.63;3.33;;;16.10;99.90;;;;;;4925291;29;20474;-72
2021/08/10 04:34:08;;;;;;;4.37;3.33;;;16.20;99.90;;;;;;4921252;29;20214;-72
2021/08/10 04:36:34;;;;;;;3.90;3.40;;;16.20;99.90;;;;;;4930195;29;20191;-72
2021/08/10 04:39:00;;;;;;;3.70;3.37;;;16.20;99.90;;;;;;4924503;29;20337;-72
2021/08/10 04:41:26;;;;;;;4.63;3.07;;;16.20;99.90;;;;;;4931368;29;20543;-71
2021/08/10 04:43:52;;;;;;;4.17;3.77;;;16.20;99.90;;;;;;4922205;29;20469;-72
2021/08/10 04:46:32;;;;;;;7.93;3.70;;;16.20;99.90;;;;;;4930795;29;20465;-72
2021/08/10 04:48:58;;;;;;;3.70;3.20;;;16.00;99.90;;;;;;4943064;29;20454;-71
2021/08/10 04:51:25;;;;;;;4.40;3.40;;;15.90;99.90;;;;;;4942598;29;20496;-72
2021/08/10 04:53:50;;;;;;;3.60;3.13;;;15.60;99.90;;;;;;4942144;29;20202;-72
2021/08/10 04:56:16;;;;;;;4.53;3.83;;;15.50;99.90;;;;;;4927644;29;20445;-72
2021/08/10 04:58:41;;;;;;;4.10;3.47;;;15.40;99.90;;;;;;4932553;29;20207;-72
2021/08/10 05:01:08;;;;;;;5.73;3.93;;;15.30;99.90;;;;;;4931732;29;20879;-71
2021/08/10 05:03:33;;;;;;;5.80;3.80;;;15.30;99.90;;;;;;4917881;29;20293;-70
2021/08/10 05:05:59;;;;;;;3.70;3.30;;;15.30;99.90;;;;;;4927631;29;20466;-71
2021/08/10 05:08:25;;;;;;;4.90;3.60;;;15.20;99.90;;;;;;4936459;29;20651;-71
2021/08/10 05:10:54;;;;;;;4.60;3.80;;;15.10;99.90;;;;;;4936270;29;20233;-71
2021/08/10 05:13:19;;;;;;;3.53;3.23;;;15.10;99.90;;;;;;4935154;29;20466;-71
2021/08/10 05:15:48;;;;;;;5.13;4.00;;;15.00;99.90;;;;;;4933000;29;20461;-73
2021/08/10 05:18:15;;;;;;;7.23;3.90;;;15.00;99.90;;;;;;4932674;29;20206;-71
2021/08/10 05:20:42;;;;;;;5.53;4.40;;;15.00;99.90;;;;;;4918811;29;20429;-72
2021/08/10 05:23:08;;;;;;;4.20;3.40;;;15.10;99.90;;;;;;4933958;29;20438;-71
2021/08/10 05:25:42;;;;;;;5.43;3.53;;;15.10;99.90;;;;;;4933911;29;21066;-70
2021/08/10 05:28:08;;;;;;;4.30;3.90;;;15.20;99.90;;;;;;4918280;29;20193;-70
2021/08/10 05:30:43;;;;;;;3.67;3.37;;;15.40;99.90;;;;;;4924001;29;20454;-71
2021/08/10 05:33:09;;;;;;;7.73;4.30;;;15.40;99.90;;;;;;4935095;29;20217;-71
2021/08/10 05:35:38;;;;;;;4.17;3.70;;;15.50;99.90;;;;;;4918883;29;20423;-71
2021/08/10 05:38:04;;;;;;;5.55;4.45;;;15.50;99.90;;;;;;4932628;29;20430;-70
2021/08/10 05:40:30;;;;;;;4.80;4.33;;;15.50;99.90;;;;;;4934367;29;20407;-70
2021/08/10 05:42:55;;;;;;;5.50;3.90;;;15.50;99.90;;;;;;4934583;29;21003;-70
2021/08/10 05:45:21;;;;;;;5.20;4.20;;;15.60;99.90;;;;;;4930376;29;20241;-71
2021/08/10 05:47:47;;;;;;;6.47;4.57;;;15.60;99.90;;;;;;4904506;29;20179;-70
2021/08/10 05:50:12;;;;;;;4.80;4.20;;;15.70;99.90;;;;;;4922642;29;20209;-70
2021/08/10 05:52:38;;;;;;;4.90;4.10;;;15.60;99.90;;;;;;4922599;29;20215;-71
2021/08/10 05:55:04;;;;;;;6.80;4.47;;;15.60;99.90;;;;;;4918070;29;20183;-71
2021/08/10 05:57:29;;;;;;;6.97;4.97;;;15.60;99.90;;;;;;4916359;29;20190;-70
2021/08/10 05:59:55;;;;;;;5.30;4.37;;;15.60;99.90;;;;;;4918841;29;20514;-70
2021/08/10 06:02:20;;;;;;;9.53;5.87;;;15.60;99.90;;;;;;4918816;29;20538;-70
2021/08/10 06:04:47;;;;;;;5.00;4.20;;;15.60;99.90;;;;;;4918473;29;20209;-71
2021/08/10 06:07:13;;;;;;;6.13;3.87;;;15.60;99.90;;;;;;4926166;29;20201;-70
2021/08/10 06:09:42;;;;;;;5.17;3.87;;;15.70;99.90;;;;;;4937951;29;20438;-70
2021/08/10 06:12:08;;;;;;;4.40;3.63;;;15.80;99.90;;;;;;4938646;29;20238;-70
2021/08/10 06:14:34;;;;;;;5.80;4.00;;;15.80;99.90;;;;;;4937554;29;20433;-70
2021/08/10 06:16:59;;;;;;;4.23;3.50;;;15.90;99.90;;;;;;4938209;29;20174;-70
2021/08/10 06:19:25;;;;;;;4.63;4.07;;;16.00;99.90;;;;;;4936018;29;20183;-70
2021/08/10 06:21:52;;;;;;;3.53;3.20;;;16.00;99.90;;;;;;4937430;29;20178;-70
2021/08/10 06:24:17;;;;;;;4.03;3.73;;;16.20;99.90;;;;;;4937274;29;20190;-71
2021/08/10 06:26:43;;;;;;;4.47;3.70;;;16.20;99.90;;;;;;4937640;29;20497;-70
2021/08/10 06:29:08;;;;;;;4.50;3.67;;;16.30;99.90;;;;;;4938024;29;20601;-70
2021/08/10 06:31:34;;;;;;;4.37;3.70;;;16.30;99.90;;;;;;4935357;29;20218;-71
2021/08/10 06:33:59;;;;;;;4.70;3.50;;;16.50;99.90;;;;;;4936736;29;20214;-71
2021/08/10 06:36:25;;;;;;;3.63;3.33;;;16.50;99.90;;;;;;4937772;29;20181;-70
2021/08/10 06:38:50;;;;;;;3.60;3.23;;;16.60;99.90;;;;;;4937178;29;20666;-70
2021/08/10 06:41:16;;;;;;;5.70;5.10;;;16.60;99.90;;;;;;4935658;29;20192;-70
2021/08/10 06:43:41;;;;;;;8.40;4.50;;;16.60;99.90;;;;;;4938072;29;20284;-70
2021/08/10 06:46:07;;;;;;;4.63;3.60;;;16.70;99.90;;;;;;4937195;29;20225;-70
2021/08/10 06:48:32;;;;;;;3.80;3.40;;;16.70;99.90;;;;;;4936559;29;20214;-70
2021/08/10 06:51:01;;;;;;;3.87;3.53;;;16.70;99.90;;;;;;4936595;29;20202;-71
2021/08/10 06:53:26;;;;;;;3.90;3.37;;;16.90;99.90;;;;;;4937024;29;20201;-69
2021/08/10 06:55:52;;;;;;;3.70;3.23;;;17.00;99.90;;;;;;4937114;29;20414;-72
2021/08/10 06:58:18;;;;;;;4.70;3.60;;;17.10;99.90;;;;;;4940124;29;20190;-69
2021/08/10 07:00:43;;;;;;;3.90;3.50;;;17.30;99.90;;;;;;4938002;29;20197;-69
2021/08/10 07:03:09;;;;;;;3.50;3.20;;;17.50;99.90;;;;;;4934886;29;20194;-70
2021/08/10 07:05:35;;;;;;;3.50;3.20;;;17.60;99.90;;;;;;4936327;29;20193;-70
2021/08/10 07:08:01;;;;;;;4.93;3.70;;;17.70;99.90;;;;;;4922759;29;20253;-70
2021/08/10 07:10:26;;;;;;;2.97;2.67;;;17.80;99.90;;;;;;4918855;29;20450;-70
2021/08/10 07:12:52;;;;;;;4.17;2.97;;;17.80;99.90;;;;;;4932983;29;20218;-71
2021/08/10 07:15:20;;;;;;;3.73;3.17;;;17.90;99.90;;;;;;4948592;29;20186;-70
2021/08/10 07:17:46;;;;;;;4.23;3.73;;;18.00;99.90;;;;;;4937935;29;20302;-70
2021/08/10 07:20:12;;;;;;;3.37;3.07;;;18.10;99.90;;;;;;4937441;29;20880;-70
2021/08/10 07:22:38;;;;;;;4.63;3.33;;;18.20;99.90;;;;;;4924394;29;20425;-70
2021/08/10 07:25:04;;;;;;;3.37;3.07;;;18.20;99.90;;;;;;4918867;29;20261;-70
2021/08/10 07:27:30;;;;;;;5.57;3.47;;;18.20;99.90;;;;;;4917745;29;20532;-70
2021/08/10 07:29:55;;;;;;;3.20;2.80;;;18.30;99.90;;;;;;4920680;29;20426;-69
2021/08/10 07:32:21;;;;;;;5.63;3.60;;;18.20;99.90;;;;;;4936489;29;20190;-69
2021/08/10 07:34:46;;;;;;;5.63;3.20;;;18.30;99.90;;;;;;4927282;29;20182;-70
2021/08/10 07:37:12;;;;;;;4.33;3.77;;;18.30;99.90;;;;;;4922261;29;20171;-70
2021/08/10 07:39:38;;;;;;;3.30;2.90;;;18.40;99.90;;;;;;4934332;29;20217;-70
2021/08/10 07:42:04;;;;;;;3.60;3.30;;;18.50;99.90;;;;;;4900456;29;20214;-70
2021/08/10 07:44:29;;;;;;;4.53;3.20;;;18.60;99.90;;;;;;4922399;29;20213;-70
2021/08/10 07:46:55;;;;;;;3.70;3.03;;;18.50;99.90;;;;;;4919796;29;20427;-70
2021/08/10 07:49:20;;;;;;;4.70;3.40;;;18.50;99.90;;;;;;4936541;29;20513;-71
2021/08/10 07:51:46;;;;;;;2.93;2.70;;;18.60;99.90;;;;;;4919607;29;20261;-70
2021/08/10 07:54:12;;;;;;;4.80;3.43;;;18.60;99.90;;;;;;4928911;29;20273;-71
2021/08/10 07:56:37;;;;;;;3.10;2.67;;;18.60;99.90;;;;;;4935036;29;21311;-71
2021/08/10 07:59:03;;;;;;;3.63;3.22;;;18.70;99.90;;;;;;4935211;29;20424;-70
2021/08/10 08:01:28;;;;;;;4.90;3.43;;;18.90;99.90;;;;;;4936310;29;20577;-70
2021/08/10 08:03:54;;;;;;;3.80;3.50;;;19.00;99.90;;;;;;4935200;29;20202;-71
2021/08/10 08:06:19;;;;;;;4.07;2.80;;;19.20;99.90;;;;;;4933849;29;20182;-71
2021/08/10 08:08:45;;;;;;;4.07;3.67;;;19.40;99.90;;;;;;4917493;29;20194;-70
2021/08/10 08:11:10;;;;;;;3.73;3.33;;;19.60;99.90;;;;;;4934209;29;20209;-70
2021/08/10 08:13:36;;;;;;;5.43;3.57;;;19.80;99.90;;;;;;4936666;29;20252;-70
2021/08/10 08:16:02;;;;;;;4.60;3.40;;;19.90;99.90;;;;;;4936760;29;20649;-69
2021/08/10 08:18:27;;;;;;;2.73;2.53;;;20.00;99.90;;;;;;4937755;29;20178;-70
2021/08/10 08:20:53;;;;;;;5.13;3.10;;;19.90;99.90;;;;;;4933976;29;20640;-70
2021/08/10 08:23:19;;;;;;;3.60;2.90;;;19.90;99.90;;;;;;4920342;29;20572;-70
2021/08/10 08:25:46;;;;;;;4.80;2.87;;;20.00;99.90;;;;;;4921015;29;20423;-70
2021/08/10 08:28:13;;;;;;;3.17;2.87;;;20.10;99.90;;;;;;4921802;29;20426;-70
2021/08/10 08:30:40;;;;;;;2.67;2.47;;;20.20;99.90;;;;;;4902765;29;20509;-70
2021/08/10 08:33:10;;;;;;;5.40;2.87;;;20.50;99.90;;;;;;4920587;29;20443;-70
2021/08/10 08:35:38;;;;;;;5.50;3.00;;;20.60;99.90;;;;;;4920514;29;20415;-70
2021/08/10 08:38:04;;;;;;;2.60;2.40;;;20.60;99.90;;;;;;4920705;29;20403;-70
2021/08/10 08:40:30;;;;;;;3.75;3.10;;;20.70;99.90;;;;;;4919804;29;20957;-69
2021/08/10 08:42:56;;;;;;;4.70;3.40;;;20.80;99.90;;;;;;4921631;29;20234;-70
2021/08/10 08:45:22;;;;;;;4.20;2.97;;;20.70;99.90;;;;;;4918994;29;20403;-70
2021/08/10 08:47:53;;;;;;;3.60;2.50;;;20.60;99.90;;;;;;4920724;29;20433;-70
2021/08/10 08:50:21;;;;;;;4.17;2.87;;;20.70;99.90;;;;;;4920867;29;20175;-70
2021/08/10 08:52:52;;;;;;;3.60;2.60;;;20.60;99.90;;;;;;4928857;29;21037;-70
2021/08/10 08:55:21;;;;;;;3.27;2.97;;;20.40;99.90;;;;;;4939040;29;20422;-70
2021/08/10 08:57:47;;;;;;;3.60;3.00;;;20.30;99.90;;;;;;4936361;29;20441;-70
2021/08/10 09:00:15;;;;;;;3.53;3.17;;;20.40;99.90;;;;;;4939178;29;20410;-70
2021/08/10 09:02:41;;;;;;;3.53;3.20;;;20.40;99.90;;;;;;4934864;29;20454;-70
2021/08/10 09:05:07;;;;;;;2.70;2.50;;;20.50;99.90;;;;;;4936717;29;20441;-70
2021/08/10 09:07:33;;;;;;;3.43;2.90;;;20.70;99.90;;;;;;4941589;29;20422;-70
2021/08/10 09:10:13;;;;;;;4.00;3.13;;;20.90;99.90;;;;;;4944343;29;20799;-69
2021/08/10 09:12:47;;;;;;;3.73;2.90;;;21.00;99.90;;;;;;4945823;29;20224;-69
2021/08/10 09:15:29;;;;;;;3.40;3.10;;;21.20;99.90;;;;;;4930157;29;20457;-69
2021/08/10 09:17:55;;;;;;;4.77;3.53;;;21.40;99.90;;;;;;4938173;29;20430;-70
2021/08/10 09:20:29;;;;;;;3.20;2.90;;;21.40;99.90;;;;;;4940135;29;20489;-71
2021/08/10 09:22:55;;;;;;;5.20;3.77;;;21.60;99.90;;;;;;4937222;29;20489;-70
2021/08/10 09:25:22;;;;;;;7.63;4.00;;;21.70;99.90;;;;;;4935125;29;20431;-70
2021/08/10 09:27:47;;;;;;;4.53;4.03;;;21.70;99.90;;;;;;4940339;29;20478;-70
2021/08/10 09:30:24;;;;;;;5.37;4.20;;;21.70;99.90;;;;;;4941342;29;20429;-70
2021/08/10 09:32:53;;;;;;;4.77;4.07;;;21.50;99.90;;;;;;4937384;29;20563;-70
2021/08/10 09:35:21;;;;;;;7.03;4.10;;;21.20;99.90;;;;;;4939766;29;20434;-70
2021/08/10 09:38:18;;;;;;;5.10;4.63;;;21.20;99.90;;;;;;4923317;29;20391;-70
2021/08/10 09:40:46;;;;;;;4.90;4.40;;;21.40;99.90;;;;;;4928802;29;20434;-70
2021/08/10 09:43:19;;;;;;;6.10;4.93;;;21.30;99.90;;;;;;4941021;29;20434;-70
2021/08/10 09:45:45;;;;;;;5.53;4.27;;;21.20;99.90;;;;;;4941235;29;20432;-69
2021/08/10 09:48:15;;;;;;;4.57;4.10;;;21.20;99.90;;;;;;4932840;29;20449;-70
2021/08/10 09:50:41;;;;;;;4.70;4.30;;;21.20;99.90;;;;;;4941011;29;20433;-70
2021/08/10 09:53:19;;;;;;;5.55;5.03;;;21.30;99.90;;;;;;4939327;29;20500;-69
2021/08/10 09:55:55;;;;;;;5.57;4.90;;;21.20;99.90;;;;;;4939149;29;20182;-69
2021/08/10 09:58:21;;;;;;;5.17;4.67;;;21.20;99.90;;;;;;4936847;29;20448;-68
2021/08/10 10:00:47;;;;;;;4.83;4.33;;;21.10;99.90;;;;;;4940591;29;20418;-68
2021/08/10 10:03:17;;;;;;;4.63;4.13;;;21.10;99.90;;;;;;4941075;29;20698;-68
2021/08/10 10:05:44;;;;;;;5.57;5.00;;;21.00;99.90;;;;;;4941040;29;20469;-68
2021/08/10 10:08:21;;;;;;;4.93;4.37;;;21.30;99.90;;;;;;4933495;29;20435;-68
2021/08/10 10:10:48;;;;;;;4.77;4.27;;;21.50;99.90;;;;;;4935184;29;20504;-68
2021/08/10 10:13:19;;;;;;;6.97;4.57;;;21.60;99.90;;;;;;4941748;29;20461;-68
2021/08/10 10:15:45;;;;;;;6.30;4.40;;;21.80;99.90;;;;;;4940107;29;20461;-68
2021/08/10 10:18:12;;;;;;;5.07;4.40;;;21.90;99.90;;;;;;4937240;29;20427;-68
2021/08/10 10:20:44;;;;;;;5.20;4.70;;;22.00;99.90;;;;;;4932349;29;20457;-68
2021/08/10 10:23:16;;;;;;;5.03;4.53;;;22.10;99.90;;;;;;4907230;29;20221;-68
2021/08/10 10:25:42;;;;;;;5.07;4.53;;;22.10;99.90;;;;;;4940230;29;20414;-67
2021/08/10 10:28:08;;;;;;;4.93;4.53;;;21.80;99.90;;;;;;4941146;29;20421;-70
2021/08/10 10:30:34;;;;;;;4.70;4.20;;;21.80;99.90;;;;;;4935848;29;20190;-69
2021/08/10 10:33:01;;;;;;;5.93;4.90;;;21.80;99.90;;;;;;4940378;29;20457;-69
2021/08/10 10:35:27;;;;;;;6.80;4.77;;;21.80;99.90;;;;;;4939740;29;20422;-69
2021/08/10 10:37:54;;;;;;;4.67;4.27;;;21.80;99.90;;;;;;4940234;29;20474;-69
2021/08/10 10:40:21;;;;;;;6.43;4.80;;;21.80;99.90;;;;;;4944202;29;20198;-69
2021/08/10 10:42:50;;;;;;;5.87;4.47;;;22.10;99.90;;;;;;4938382;29;20509;-69
2021/08/10 10:45:35;;;;;;;6.00;4.40;;;22.00;99.90;;;;;;4937587;29;20441;-69
2021/08/10 10:48:11;;;;;;;6.67;4.87;;;22.10;99.90;;;;;;4936190;29;20429;-70
2021/08/10 10:51:02;;;;;;;5.43;4.90;;;22.00;99.90;;;;;;4941586;29;20456;-71
2021/08/10 10:53:29;;;;;;;8.73;5.10;;;22.10;99.90;;;;;;4940417;29;20442;-70
2021/08/10 10:56:24;;;;;;;5.90;5.40;;;22.00;99.90;;;;;;4922374;29;20419;-70
2021/08/10 10:58:52;;;;;;;6.60;6.00;;;22.00;99.90;;;;;;4936932;29;20510;-71
2021/08/10 11:01:21;;;;;;;5.90;5.30;;;21.90;99.90;;;;;;4938296;29;20478;-70
2021/08/10 11:04:08;;;;;;;7.90;6.20;;;22.00;99.90;;;;;;4937392;29;20503;-69
2021/08/10 11:06:49;;;;;;;7.17;6.47;;;22.10;99.90;;;;;;4936659;29;20425;-69
2021/08/10 11:09:36;;;;;;;6.40;5.80;;;22.00;99.90;;;;;;4919431;29;20429;-71
2021/08/10 11:12:03;;;;;;;9.67;6.83;;;22.10;99.90;;;;;;4937855;29;20473;-70
2021/08/10 11:14:37;;;;;;;5.90;5.40;;;22.00;99.90;;;;;;4938240;29;20461;-70
2021/08/10 11:17:11;;;;;;;6.57;5.97;;;22.10;99.90;;;;;;4936874;29;20441;-69
2021/08/10 11:19:39;;;;;;;6.47;5.87;;;22.20;99.90;;;;;;4936706;29;20422;-70
2021/08/10 11:22:17;;;;;;;6.10;5.60;;;22.30;99.90;;;;;;4926015;29;20430;-70
2021/08/10 11:24:51;;;;;;;6.22;5.63;;;22.30;99.90;;;;;;4932078;29;20428;-70
2021/08/10 11:27:30;;;;;;;6.03;5.53;;;22.40;99.90;;;;;;4941193;29;20182;-70
2021/08/10 11:29:56;;;;;;;5.67;5.07;;;22.40;99.90;;;;;;4937561;29;20429;-70
2021/08/10 11:32:44;;;;;;;8.53;5.93;;;22.40;99.90;;;;;;4938817;29;20870;-70
2021/08/10 11:35:28;;;;;;;6.53;5.93;;;22.40;99.90;;;;;;4938563;29;20414;-70
2021/08/10 11:38:10;;;;;;;8.23;6.40;;;22.30;99.90;;;;;;4940315;29;20418;-70
2021/08/10 11:41:02;;;;;;;7.27;6.50;;;21.70;99.90;;;;;;4937016;29;20425;-70
2021/08/10 11:43:46;;;;;;;7.40;6.47;;;21.60;99.90;;;;;;4936421;29;20457;-69
2021/08/10 11:46:26;;;;;;;8.27;7.47;;;21.50;99.90;;;;;;4936785;29;20777;-68
2021/08/10 11:48:53;;;;;;;7.57;6.87;;;21.30;99.90;;;;;;4938576;29;20438;-69
2021/08/10 11:51:34;;;;;;;6.70;6.10;;;21.20;99.90;;;;;;4936565;29;20800;-69
2021/08/10 11:54:17;;;;;;;6.97;5.90;;;21.20;99.90;;;;;;4926387;29;20446;-69
2021/08/10 11:56:46;;;;;;;7.33;6.33;;;21.30;99.90;;;;;;4937857;29;20798;-70
2021/08/10 11:59:19;;;;;;;7.67;6.47;;;21.30;99.90;;;;;;4939822;29;20449;-68
2021/08/10 12:01:46;;;;;;;8.30;6.30;;;21.40;99.90;;;;;;4932443;29;20784;-69
2021/08/10 12:04:17;;;;;;;7.20;5.87;;;21.40;99.90;;;;;;4939510;29;20453;-69
2021/08/10 12:06:44;;;;;;;6.10;5.50;;;21.40;99.90;;;;;;4940657;29;20422;-69
2021/08/10 12:09:12;;;;;;;6.80;6.00;;;21.40;99.90;;;;;;4939281;29;20423;-69
2021/08/10 12:11:39;;;;;;;7.00;5.60;;;21.60;99.90;;;;;;4937004;29;20477;-69
2021/08/10 12:14:19;;;;;;;7.23;6.20;;;21.60;99.90;;;;;;4940092;29;20472;-69
2021/08/10 12:17:02;;;;;;;5.27;4.77;;;21.80;99.90;;;;;;4939791;29;20421;-70
2021/08/10 12:19:29;;;;;;;5.60;4.90;;;21.90;99.90;;;;;;4938824;29;20417;-70
2021/08/10 12:21:55;;;;;;;5.43;4.63;;;22.10;99.90;;;;;;4934828;29;20439;-71
2021/08/10 12:24:31;;;;;;;5.37;4.90;;;22.10;99.90;;;;;;4905146;29;20447;-70
2021/08/10 12:26:57;;;;;;;5.00;4.50;;;22.20;99.90;;;;;;4935546;29;20182;-70
2021/08/10 12:29:36;;;;;;;7.80;4.63;;;22.10;99.90;;;;;;4938828;29;21827;-70
2021/08/10 12:32:05;;;;;;;4.60;3.80;;;22.20;99.90;;;;;;4938412;29;20202;-70
2021/08/10 12:34:33;;;;;;;4.60;4.20;;;22.00;99.90;;;;;;4931773;29;20453;-69
2021/08/10 12:36:59;;;;;;;4.60;4.20;;;21.90;99.90;;;;;;4939311;29;20437;-70
2021/08/10 12:39:25;;;;;;;5.10;4.00;;;22.00;99.90;;;;;;4939571;29;20900;-70
2021/08/10 12:41:51;;;;;;;5.97;4.30;;;21.90;99.90;;;;;;4939201;29;20418;-70
2021/08/10 12:44:21;;;;;;;4.20;3.70;;;22.00;99.90;;;;;;4935947;29;20458;-71
2021/08/10 12:46:53;;;;;;;5.43;3.83;;;22.10;99.90;;;;;;4922506;29;20258;-70
2021/08/10 12:49:19;;;;;;;5.30;4.70;;;22.20;99.90;;;;;;4939208;29;20500;-70
2021/08/10 12:51:56;;;;;;;5.40;4.57;;;22.10;99.90;;;;;;4939107;29;20457;-70
2021/08/10 12:54:23;;;;;;;4.60;3.67;;;22.20;99.90;;;;;;4930611;29;20277;-70
2021/08/10 12:56:49;;;;;;;10.67;4.50;;;22.30;99.90;;;;;;4934219;29;20449;-70